Time;durP1;ratioP1;P1;durP2;ratioP2;P2;SDS_P1;SDS_P2;PMS_P1;PMS_P2;Temp;Humidity;BMP_temperature;BMP_pressure;BME280_temperature;BME280_humidity;BME280_pressure;Samples;Min_cycle;Max_cycle;Signal;HPM_P1;HPM_P2
2023/07/01 00:00:15;;;;;;;;;2.25;2.25;;;;;20.48;49.93;100547.97;5062713;28;45668;-78
2023/07/01 00:02:41;;;;;;;;;3.25;3.00;;;;;20.45;51.15;100539.34;5074158;28;45565;-78
2023/07/01 00:05:09;;;;;;;;;3.00;2.50;;;;;20.44;51.85;100532.34;5073696;27;50118;-78
2023/07/01 00:07:35;;;;;;;;;3.00;2.00;;;;;20.41;51.27;100535.22;5059390;28;45399;-78
2023/07/01 00:10:01;;;;;;;;;11.25;10.25;;;;;20.36;51.86;100535.56;5070743;28;45328;-78
2023/07/01 00:12:26;;;;;;;;;20.25;15.75;;;;;20.38;52.06;100536.31;5071626;28;45443;-78
2023/07/01 00:14:51;;;;;;;;;5.25;5.00;;;;;20.36;52.55;100522.28;5073080;28;47179;-78
2023/07/01 00:17:18;;;;;;;;;2.25;2.25;;;;;20.36;52.53;100522.28;5083100;27;64661;-78
2023/07/01 00:19:43;;;;;;;;;1.75;1.75;;;;;20.31;52.50;100524.41;5076866;28;45407;-78
2023/07/01 00:22:09;;;;;;;;;3.25;2.25;;;;;20.27;53.78;100526.44;5069159;28;45876;-78
2023/07/01 00:24:34;;;;;;;;;1.75;1.75;;;;;20.27;52.71;100525.56;5072926;28;46441;-78
2023/07/01 00:27:00;;;;;;;;;1.75;1.75;;;;;20.24;53.43;100518.69;5072427;27;55043;-77
2023/07/01 00:29:25;;;;;;;;;5.00;2.25;;;;;20.21;53.82;100520.72;5077172;28;45704;-78
2023/07/01 00:31:50;;;;;;;;;3.00;1.75;;;;;20.19;53.81;100512.00;5073667;28;45498;-77
2023/07/01 00:34:16;;;;;;;;;4.00;1.00;;;;;20.18;53.70;100507.63;5068312;28;64454;-79
2023/07/01 00:36:42;;;;;;;;;4.00;3.50;;;;;20.15;53.51;100506.06;5049862;28;45547;-78
2023/07/01 00:39:07;;;;;;;;;4.75;3.00;;;;;20.14;53.90;100506.16;5070415;28;63513;-79
2023/07/01 00:41:33;;;;;;;;;2.25;2.00;;;;;20.12;55.77;100502.78;5070813;28;62491;-79
2023/07/01 00:43:58;;;;;;;;;5.25;3.25;;;;;20.09;54.78;100499.34;5078212;27;60172;-78
2023/07/01 00:46:23;;;;;;;;;3.75;2.50;;;;;20.05;54.66;100491.72;5049107;28;62369;-78
2023/07/01 00:48:49;;;;;;;;;2.00;2.00;;;;;20.00;55.88;100491.19;5071501;28;45387;-78
2023/07/01 00:51:14;;;;;;;;;2.50;2.50;;;;;19.98;55.01;100490.47;5079312;27;66092;-78
2023/07/01 00:53:40;;;;;;;;;7.25;3.00;;;;;19.95;54.76;100490.66;5073893;28;57335;-79
2023/07/01 00:56:06;;;;;;;;;5.25;2.25;;;;;19.91;54.64;100484.72;5068969;28;45849;-79
2023/07/01 00:58:32;;;;;;;;;5.00;4.00;;;;;19.90;54.97;100477.69;5075196;28;45484;-78
2023/07/01 01:01:00;;;;;;;;;2.00;2.00;;;;;19.85;55.55;100469.25;5073768;28;45486;-78
2023/07/01 01:03:33;;;;;;;;;3.00;3.00;;;;;19.84;55.60;100475.50;5052164;28;48140;-78
2023/07/01 01:06:04;;;;;;;;;3.00;2.00;;;;;19.80;57.60;100476.66;5067334;28;45359;-78
2023/07/01 01:08:44;;;;;;;;;2.75;2.25;;;;;19.77;55.77;100467.09;5068561;27;45857;-78
2023/07/01 01:11:11;;;;;;;;;2.25;2.25;;;;;19.72;56.45;100469.19;5066269;28;45582;-78
2023/07/01 01:13:37;;;;;;;;;2.25;2.25;;;;;19.68;56.50;100457.09;5049120;28;47592;-78
2023/07/01 01:16:03;;;;;;;;;3.25;3.00;;;;;19.69;56.66;100470.25;5066391;28;66609;-78
2023/07/01 01:18:31;;;;;;;;;3.75;3.00;;;;;19.68;56.39;100459.75;5071582;28;45535;-78
2023/07/01 01:20:57;;;;;;;;;1.50;1.25;;;;;19.66;57.41;100466.97;5067265;28;45410;-79
2023/07/01 01:23:27;;;;;;;;;3.50;2.50;;;;;19.60;58.63;100460.28;5076571;27;48157;-79
2023/07/01 01:26:09;;;;;;;;;4.00;3.00;;;;;19.53;59.17;100461.69;5069341;28;45387;-79
2023/07/01 01:28:35;;;;;;;;;2.75;1.50;;;;;19.43;58.50;100464.09;5083884;27;45389;-79
2023/07/01 01:31:01;;;;;;;;;3.00;2.00;;;;;19.36;59.74;100454.84;5073887;28;45519;-79
2023/07/01 01:33:26;;;;;;;;;2.00;2.00;;;;;19.33;61.17;100449.75;5072915;28;48227;-79
2023/07/01 01:35:55;;;;;;;;;3.00;2.00;;;;;19.32;60.24;100448.91;5057230;28;45694;-79
2023/07/01 01:38:25;;;;;;;;;2.75;2.00;;;;;19.26;61.82;100440.50;5072684;28;45291;-80
2023/07/01 01:41:16;;;;;;;;;3.50;2.00;;;;;19.22;62.26;100439.03;5062416;28;45328;-80
2023/07/01 01:43:56;;;;;;;;;3.75;3.00;;;;;19.15;61.39;100439.44;5074769;28;45645;-79
2023/07/01 01:46:22;;;;;;;;;4.00;4.00;;;;;19.14;60.43;100439.53;5070862;28;45876;-79
2023/07/01 01:48:47;;;;;;;;;8.25;6.00;;;;;19.14;61.28;100442.19;5076789;28;45366;-80
2023/07/01 01:51:13;;;;;;;;;5.00;4.25;;;;;19.12;60.88;100436.13;5057542;28;67289;-79
2023/07/01 01:53:39;;;;;;;;;9.00;8.00;;;;;19.09;61.76;100431.06;5073497;28;45417;-78
2023/07/01 01:56:05;;;;;;;;;6.00;6.00;;;;;19.09;62.65;100431.06;5057958;28;45351;-78
2023/07/01 01:58:31;;;;;;;;;7.75;5.75;;;;;19.04;61.36;100417.25;5072085;28;45298;-78
2023/07/01 02:00:56;;;;;;;;;7.50;6.00;;;;;19.06;61.71;100420.66;5069659;28;45505;-79
2023/07/01 02:03:22;;;;;;;;;5.00;5.00;;;;;19.02;61.41;100421.81;5065987;28;68031;-78
2023/07/01 02:05:47;;;;;;;;;9.00;6.75;;;;;19.02;62.25;100419.16;5067200;28;62442;-78
2023/07/01 02:08:12;;;;;;;;;6.00;5.00;;;;;19.01;62.14;100420.09;5068692;28;45430;-78
2023/07/01 02:10:38;;;;;;;;;8.00;5.00;;;;;18.96;61.10;100412.44;5066613;28;67721;-78
2023/07/01 02:13:05;;;;;;;;;7.25;5.75;;;;;18.99;61.43;100411.41;5076306;28;46420;-77
2023/07/01 02:15:30;;;;;;;;;7.50;5.75;;;;;18.99;61.71;100411.41;5069829;28;47372;-77
2023/07/01 02:17:56;;;;;;;;;4.75;4.00;;;;;18.96;61.57;100408.03;5068622;27;45779;-79
2023/07/01 02:20:21;;;;;;;;;7.00;5.50;;;;;18.95;62.49;100403.66;5050072;28;45626;-79
2023/07/01 02:22:46;;;;;;;;;7.00;5.00;;;;;18.89;62.46;100385.53;5061345;28;45531;-79
2023/07/01 02:25:12;;;;;;;;;5.00;3.00;;;;;18.90;62.72;100397.81;5059522;28;61515;-80
2023/07/01 02:27:37;;;;;;;;;6.00;6.00;;;;;18.87;62.91;100395.34;5060487;28;51196;-79
2023/07/01 02:30:03;;;;;;;;;4.75;3.25;;;;;18.86;62.03;100393.69;5053297;28;45688;-79
2023/07/01 02:32:29;;;;;;;;;10.00;6.00;;;;;18.87;62.24;100395.34;5058070;28;46209;-79
2023/07/01 02:34:54;;;;;;;;;7.25;4.25;;;;;18.86;63.61;100382.22;5069528;28;46958;-79
2023/07/01 02:37:20;;;;;;;;;4.50;4.50;;;;;18.86;62.74;100398.13;5072208;28;45473;-78
2023/07/01 02:39:46;;;;;;;;;6.50;4.00;;;;;18.83;62.91;100382.44;5060735;28;53754;-78
2023/07/01 02:42:14;;;;;;;;;5.25;4.50;;;;;18.86;63.20;100374.28;5057033;28;47576;-79
2023/07/01 02:44:39;;;;;;;;;3.50;3.50;;;;;18.83;62.87;100375.31;5072123;28;45473;-79
2023/07/01 02:47:05;;;;;;;;;7.25;4.00;;;;;18.84;62.68;100377.03;5055211;28;64330;-79
2023/07/01 02:49:30;;;;;;;;;4.25;2.25;;;;;18.84;63.53;100360.25;5075138;28;45730;-79
2023/07/01 02:51:55;;;;;;;;;4.00;4.00;;;;;18.83;64.07;100363.88;5072972;27;55004;-79
2023/07/01 02:54:21;;;;;;;;;4.25;3.00;;;;;18.79;63.79;100357.91;5079893;28;45693;-79
2023/07/01 02:56:46;;;;;;;;;1.50;1.50;;;;;18.77;63.65;100360.66;5058964;28;59189;-79
2023/07/01 02:59:11;;;;;;;;;7.50;4.00;;;;;18.80;62.69;100359.56;5073218;28;66524;-79
2023/07/01 03:01:37;;;;;;;;;6.00;4.50;;;;;18.85;63.64;100361.97;5069993;28;54200;-79
2023/07/01 03:04:05;;;;;;;;;5.75;4.00;;;;;18.88;64.99;100362.59;5073632;28;45312;-79
2023/07/01 03:06:31;;;;;;;;;2.00;2.00;;;;;18.88;63.69;100361.75;5072907;28;45324;-78
2023/07/01 03:08:56;;;;;;;;;7.00;2.00;;;;;18.87;63.77;100360.06;5079313;28;45385;-79
2023/07/01 03:11:21;;;;;;;;;2.00;1.50;;;;;18.88;64.05;100365.25;5070469;28;71174;-79
2023/07/01 03:13:47;;;;;;;;;3.50;1.75;;;;;18.85;65.24;100354.84;5068113;27;45309;-78
2023/07/01 03:16:12;;;;;;;;;1.00;1.00;;;;;18.83;64.47;100350.63;5052065;28;45467;-77
2023/07/01 03:18:37;;;;;;;;;1.25;1.25;;;;;18.83;64.00;100350.63;5077603;28;64677;-77
2023/07/01 03:21:04;;;;;;;;;2.25;1.75;;;;;18.84;64.26;100350.50;5072804;27;45502;-77
2023/07/01 03:23:29;;;;;;;;;1.50;1.50;;;;;18.85;63.99;100346.91;5072919;28;45395;-77
2023/07/01 03:25:55;;;;;;;;;1.00;1.00;;;;;18.84;63.49;100342.56;5070890;28;45488;-77
2023/07/01 03:28:21;;;;;;;;;1.25;1.25;;;;;18.88;63.88;100338.75;5047922;28;45645;-77
2023/07/01 03:30:46;;;;;;;;;5.00;2.00;;;;;18.91;65.34;100338.53;5058940;28;48137;-78
2023/07/01 03:33:12;;;;;;;;;1.75;1.00;;;;;18.92;63.87;100337.56;5075516;28;45556;-78
2023/07/01 03:35:38;;;;;;;;;2.00;1.00;;;;;18.95;64.49;100337.38;5088630;27;64541;-79
2023/07/01 03:38:03;;;;;;;;;1.00;1.00;;;;;18.92;64.52;100334.91;5079825;28;45560;-78
2023/07/01 03:40:29;;;;;;;;;2.50;2.00;;;;;18.96;64.52;100339.06;5076979;28;48513;-78
2023/07/01 03:42:54;;;;;;;;;1.75;1.00;;;;;19.00;64.19;100337.06;5075139;28;45350;-78
2023/07/01 03:45:19;;;;;;;;;1.00;1.00;;;;;19.01;64.31;100324.63;5075011;28;45810;-79
2023/07/01 03:47:45;;;;;;;;;1.00;1.00;;;;;18.99;64.03;100322.09;5073444;28;59266;-78
2023/07/01 03:50:12;;;;;;;;;2.75;2.00;;;;;19.04;64.06;100327.94;5078625;27;45473;-79
2023/07/01 03:52:38;;;;;;;;;1.00;1.00;;;;;19.03;63.72;100318.25;5059067;28;45260;-78
2023/07/01 03:55:06;;;;;;;;;4.75;2.00;;;;;19.07;64.28;100325.06;5076346;28;45403;-78
2023/07/01 03:57:32;;;;;;;;;2.00;1.00;;;;;19.07;66.22;100313.59;5072473;28;45436;-79
2023/07/01 03:59:57;;;;;;;;;1.00;1.00;;;;;19.08;64.13;100320.59;5061801;28;47630;-79
2023/07/01 04:02:22;;;;;;;;;1.00;1.00;;;;;19.05;64.60;100310.19;5076183;27;69257;-79
2023/07/01 04:04:48;;;;;;;;;1.75;1.00;;;;;19.06;64.88;100315.41;5072156;28;45442;-78
2023/07/01 04:07:13;;;;;;;;;2.75;1.00;;;;;19.06;64.56;100320.72;5058490;28;45591;-78
2023/07/01 04:09:39;;;;;;;;;1.00;1.00;;;;;19.04;66.95;100312.00;5077700;28;45764;-79
2023/07/01 04:12:05;;;;;;;;;0.25;0.00;;;;;19.00;65.33;100310.53;5063304;28;45676;-79
2023/07/01 04:14:30;;;;;;;;;3.00;1.00;;;;;18.95;64.96;100316.16;5080943;27;45425;-79
2023/07/01 04:16:55;;;;;;;;;0.00;0.00;;;;;18.96;65.47;100314.34;5076895;27;45987;-79
2023/07/01 04:19:21;;;;;;;;;1.00;1.00;;;;;18.97;65.07;100305.44;5072147;28;46753;-78
2023/07/01 04:21:47;;;;;;;;;2.00;1.00;;;;;18.93;65.70;100303.97;5052228;28;62608;-79
2023/07/01 04:24:13;;;;;;;;;1.75;1.75;;;;;18.95;65.42;100308.19;5068727;28;45451;-79
2023/07/01 04:26:38;;;;;;;;;2.25;1.00;;;;;18.94;65.22;100300.34;5072140;28;62748;-79
2023/07/01 04:29:03;;;;;;;;;2.00;0.75;;;;;18.95;65.94;100300.25;5072209;28;46293;-79
2023/07/01 04:31:29;;;;;;;;;0.25;0.25;;;;;18.95;65.67;100299.41;5065280;28;45642;-80
2023/07/01 04:33:55;;;;;;;;;1.50;0.75;;;;;18.94;65.40;100305.66;5069852;27;60678;-79
2023/07/01 04:36:20;;;;;;;;;0.00;0.00;;;;;18.91;66.53;100298.75;5059433;28;45560;-78
2023/07/01 04:38:46;;;;;;;;;0.25;0.25;;;;;18.90;66.90;100297.06;5072425;28;45590;-77
2023/07/01 04:41:11;;;;;;;;;0.75;0.75;;;;;18.90;66.05;100304.16;5069033;28;45836;-77
2023/07/01 04:43:36;;;;;;;;;2.00;1.00;;;;;18.85;66.06;100287.72;5075682;27;61774;-76
2023/07/01 04:46:03;;;;;;;;;1.00;1.00;;;;;18.88;65.16;100298.13;5075975;28;73274;-71
2023/07/01 04:48:28;;;;;;;;;2.00;1.00;;;;;18.70;67.13;100295.75;5076989;28;48122;-73
2023/07/01 04:50:54;;;;;;;;;1.50;0.25;;;;;18.34;74.31;100291.09;5067481;28;45448;-74
2023/07/01 04:53:19;;;;;;;;;1.00;1.00;;;;;18.08;82.43;100285.75;5073378;28;65559;-75
2023/07/01 04:55:45;;;;;;;;;2.00;2.00;;;;;18.00;71.58;100286.22;5072711;28;59343;-76
2023/07/01 04:58:11;;;;;;;;;2.50;0.00;;;;;17.87;71.52;100285.34;5073872;28;45375;-79
2023/07/01 05:00:40;;;;;;;;;1.00;1.00;;;;;17.82;71.32;100279.47;5076623;28;45245;-76
2023/07/01 05:03:06;;;;;;;;;0.00;0.00;;;;;17.73;71.26;100282.72;5071164;27;45550;-78
2023/07/01 05:05:31;;;;;;;;;1.00;1.00;;;;;17.65;72.55;100284.06;5071113;28;45378;-79
2023/07/01 05:07:57;;;;;;;;;0.00;0.00;;;;;17.63;71.25;100278.00;5056130;28;47051;-77
2023/07/01 05:10:25;;;;;;;;;1.00;0.00;;;;;17.65;74.18;100283.19;5084594;27;70321;-77
2023/07/01 05:12:51;;;;;;;;;0.75;0.75;;;;;17.62;73.39;100281.59;5069672;28;45514;-76
2023/07/01 05:15:17;;;;;;;;;1.00;1.00;;;;;17.54;78.28;100277.75;5074708;27;68338;-79
2023/07/01 05:17:44;;;;;;;;;1.00;0.00;;;;;17.46;79.48;100284.38;5080696;27;45379;-75
2023/07/01 05:20:11;;;;;;;;;1.00;0.50;;;;;17.44;75.39;100273.03;5071435;27;66556;-77
2023/07/01 05:22:37;;;;;;;;;1.50;1.00;;;;;17.50;73.47;100284.19;5051414;28;46367;-76
2023/07/01 05:25:03;;;;;;;;;0.00;0.00;;;;;17.49;73.41;100277.19;5069261;28;45482;-78
2023/07/01 05:27:29;;;;;;;;;2.50;1.00;;;;;17.48;73.17;100275.50;5071983;28;46402;-79
2023/07/01 05:29:54;;;;;;;;;0.00;0.00;;;;;17.41;78.17;100273.22;5077316;27;45238;-78
2023/07/01 05:32:20;;;;;;;;;0.75;0.75;;;;;17.46;75.17;100286.16;5070875;28;45263;-78
2023/07/01 05:34:45;;;;;;;;;0.25;0.25;;;;;17.50;75.09;100277.09;5072394;28;45631;-78
2023/07/01 05:37:10;;;;;;;;;0.00;0.00;;;;;17.43;78.41;100279.25;5073106;28;64111;-78
2023/07/01 05:39:36;;;;;;;;;0.00;0.00;;;;;17.40;94.30;100284.72;5072949;28;58091;-77
2023/07/01 05:42:01;;;;;;;;;0.00;0.00;;;;;17.41;97.44;100282.97;5070239;28;45346;-77
2023/07/01 05:44:27;;;;;;;;;1.00;1.00;;;;;17.42;99.98;100280.22;5072713;28;45454;-77
2023/07/01 05:46:54;;;;;;;;;1.00;0.00;;;;;17.47;100.00;100282.56;5066470;28;45575;-77
2023/07/01 05:49:19;;;;;;;;;0.00;0.00;;;;;17.47;84.16;100277.28;5072493;28;45628;-77
2023/07/01 05:51:45;;;;;;;;;1.25;1.25;;;;;17.48;81.99;100278.16;5073317;28;45561;-76
2023/07/01 05:54:10;;;;;;;;;1.00;1.00;;;;;17.46;81.88;100273.78;5077113;28;64079;-76
2023/07/01 05:56:35;;;;;;;;;1.00;1.00;;;;;17.53;82.15;100283.97;5089691;27;45483;-77
2023/07/01 05:59:01;;;;;;;;;0.75;0.75;;;;;17.57;80.45;100278.41;5067934;28;68474;-74
2023/07/01 06:01:27;;;;;;;;;3.00;0.50;;;;;17.63;79.77;100277.16;5079239;28;45480;-74
2023/07/01 06:03:53;;;;;;;;;1.00;1.00;;;;;17.67;80.39;100275.16;5055515;28;45991;-74
2023/07/01 06:06:18;;;;;;;;;1.00;0.00;;;;;17.68;82.13;100282.16;5074527;28;71307;-74
2023/07/01 06:08:43;;;;;;;;;0.00;0.00;;;;;17.68;93.30;100285.66;5074212;28;52577;-74
2023/07/01 06:11:09;;;;;;;;;0.00;0.00;;;;;17.68;83.41;100283.00;5073005;28;61195;-74
2023/07/01 06:13:36;;;;;;;;;0.00;0.00;;;;;17.70;81.35;100283.75;5073896;28;59722;-74
2023/07/01 06:16:02;;;;;;;;;1.00;0.75;;;;;17.69;81.39;100279.41;5079878;28;45494;-74
2023/07/01 06:18:27;;;;;;;;;1.00;0.00;;;;;17.70;81.42;100274.97;5075522;28;45452;-74
2023/07/01 06:20:52;;;;;;;;;0.00;0.00;;;;;17.70;80.70;100273.16;5077392;28;63426;-74
2023/07/01 06:23:18;;;;;;;;;0.00;0.00;;;;;17.74;80.77;100281.75;5071074;28;65203;-77
2023/07/01 06:25:43;;;;;;;;;0.00;0.00;;;;;17.79;80.93;100274.38;5069077;28;77115;-77
2023/07/01 06:28:08;;;;;;;;;2.00;0.00;;;;;17.86;80.23;100277.50;5061162;28;66814;-77
2023/07/01 06:30:34;;;;;;;;;0.00;0.00;;;;;17.94;79.70;100267.28;5070301;28;45426;-76
2023/07/01 06:32:59;;;;;;;;;1.00;1.00;;;;;18.01;80.16;100265.94;5075477;28;45399;-77
2023/07/01 06:35:24;;;;;;;;;0.25;0.00;;;;;18.14;78.95;100266.78;5061222;28;65944;-77
2023/07/01 06:37:50;;;;;;;;;1.00;0.00;;;;;18.23;78.57;100253.91;5054071;28;45252;-77
2023/07/01 06:40:15;;;;;;;;;0.75;0.50;;;;;18.32;79.67;100258.59;5075705;28;45297;-77
2023/07/01 06:42:40;;;;;;;;;0.25;0.25;;;;;18.39;78.54;100252.75;5080330;28;45546;-77
2023/07/01 06:45:06;;;;;;;;;0.00;0.00;;;;;18.48;78.44;100266.34;5064213;28;47076;-74
2023/07/01 06:47:31;;;;;;;;;0.50;0.00;;;;;18.52;77.67;100258.09;5072007;28;45746;-74
2023/07/01 06:49:57;;;;;;;;;1.50;0.00;;;;;18.55;77.71;100249.91;5073167;27;53214;-74
2023/07/01 06:52:22;;;;;;;;;1.25;1.25;;;;;18.67;77.26;100253.53;5074645;28;53033;-74
2023/07/01 06:54:47;;;;;;;;;2.50;1.00;;;;;18.84;77.44;100268.31;5073404;28;67825;-75
2023/07/01 06:57:13;;;;;;;;;1.00;0.75;;;;;18.95;76.66;100271.06;5055525;28;45660;-75
2023/07/01 06:59:38;;;;;;;;;1.00;1.00;;;;;19.05;76.37;100265.13;5074071;28;53615;-75
2023/07/01 07:02:04;;;;;;;;;1.50;1.00;;;;;19.11;75.75;100257.59;5065530;28;61902;-76
2023/07/01 07:04:29;;;;;;;;;0.00;0.00;;;;;19.17;75.71;100258.94;5073879;28;45671;-75
2023/07/01 07:06:54;;;;;;;;;2.50;1.00;;;;;19.31;75.41;100268.59;5059693;28;45405;-77
2023/07/01 07:09:20;;;;;;;;;2.00;1.25;;;;;19.42;74.56;100251.91;5075896;27;45473;-75
2023/07/01 07:11:45;;;;;;;;;1.00;1.00;;;;;19.48;74.22;100257.63;5074599;27;45895;-75
2023/07/01 07:14:10;;;;;;;;;2.75;1.00;;;;;19.57;74.23;100263.22;5068436;28;73119;-77
2023/07/01 07:16:36;;;;;;;;;1.00;1.00;;;;;19.61;73.73;100265.53;5073877;28;64692;-76
2023/07/01 07:19:01;;;;;;;;;1.00;1.00;;;;;19.64;73.41;100262.66;5076936;28;48769;-75
2023/07/01 07:21:26;;;;;;;;;0.50;0.50;;;;;19.66;76.87;100257.25;5077152;27;68519;-75
2023/07/01 07:23:52;;;;;;;;;0.25;0.25;;;;;19.65;74.27;100261.69;5074523;28;68361;-75
2023/07/01 07:26:17;;;;;;;;;1.00;1.00;;;;;19.63;73.95;100258.31;5079547;27;45243;-76
2023/07/01 07:28:43;;;;;;;;;2.00;1.00;;;;;19.62;76.13;100258.41;5059131;28;53026;-76
2023/07/01 07:31:08;;;;;;;;;1.25;1.00;;;;;19.62;73.73;100264.59;5068866;28;67713;-76
2023/07/01 07:33:33;;;;;;;;;1.00;1.00;;;;;19.64;73.64;100259.19;5057414;28;69678;-77
2023/07/01 07:35:58;;;;;;;;;1.50;1.50;;;;;19.71;73.38;100260.44;5076102;28;63617;-76
2023/07/01 07:38:24;;;;;;;;;3.50;1.25;;;;;19.82;73.65;100263.16;5073378;28;45375;-76
2023/07/01 07:40:49;;;;;;;;;1.00;1.00;;;;;19.92;73.24;100263.34;5070789;28;62977;-77
2023/07/01 07:43:14;;;;;;;;;0.25;0.00;;;;;20.02;72.93;100263.50;5062526;28;47870;-74
2023/07/01 07:45:40;;;;;;;;;0.00;0.00;;;;;20.11;71.78;100265.47;5062502;28;45491;-76
2023/07/01 07:48:06;;;;;;;;;2.00;1.75;;;;;20.25;71.55;100259.13;5068362;28;45391;-76
2023/07/01 07:50:32;;;;;;;;;0.75;0.75;;;;;20.39;71.25;100264.25;5086509;27;45598;-74
2023/07/01 07:52:58;;;;;;;;;1.00;1.00;;;;;20.47;70.58;100256.53;5079771;27;47298;-79
2023/07/01 07:55:25;;;;;;;;;2.75;1.00;;;;;20.50;70.63;100260.75;5073778;28;45323;-75
2023/07/01 07:57:51;;;;;;;;;2.75;0.00;;;;;20.53;70.37;100257.88;5069531;28;45430;-76
2023/07/01 08:00:16;;;;;;;;;1.00;1.00;;;;;20.53;69.81;100252.56;5062752;28;45577;-78
2023/07/01 08:02:45;;;;;;;;;2.25;0.75;;;;;20.55;69.76;100258.59;5070264;28;45341;-77
2023/07/01 08:05:15;;;;;;;;;2.00;2.00;;;;;20.58;69.10;100253.06;5074930;28;45153;-75
2023/07/01 08:07:40;;;;;;;;;3.50;0.75;;;;;20.70;69.42;100256.63;5063099;27;45609;-76
2023/07/01 08:10:06;;;;;;;;;1.75;1.00;;;;;20.76;69.09;100256.13;5078507;27;63816;-79
2023/07/01 08:12:32;;;;;;;;;1.00;0.75;;;;;20.85;68.53;100254.56;5061373;28;46668;-81
2023/07/01 08:14:57;;;;;;;;;1.00;1.00;;;;;20.96;68.50;100235.13;5070747;27;69719;-77
2023/07/01 08:17:22;;;;;;;;;0.00;0.00;;;;;21.05;67.59;100245.91;5073169;27;52909;-78
2023/07/01 08:19:48;;;;;;;;;1.00;0.25;;;;;21.10;67.71;100248.16;5075426;27;45305;-78
2023/07/01 08:22:13;;;;;;;;;0.00;0.00;;;;;21.10;67.51;100250.00;5048433;28;50052;-78
2023/07/01 08:24:39;;;;;;;;;1.00;1.00;;;;;21.09;68.23;100250.94;5076235;28;45546;-76
2023/07/01 08:27:04;;;;;;;;;1.75;1.25;;;;;21.08;68.01;100251.94;5070855;28;59109;-74
2023/07/01 08:29:30;;;;;;;;;1.25;1.00;;;;;21.15;68.42;100253.97;5062273;28;45530;-83
2023/07/01 08:31:55;;;;;;;;;1.00;1.00;;;;;21.20;72.55;100257.13;5073596;27;64745;-80
2023/07/01 08:34:20;;;;;;;;;2.00;0.00;;;;;21.23;67.44;100264.88;5079832;27;45353;-80
2023/07/01 08:36:46;;;;;;;;;1.00;1.00;;;;;20.94;71.62;100264.50;5071218;27;68579;-76
2023/07/01 08:39:11;;;;;;;;;2.00;0.00;;;;;20.73;68.44;100285.63;5072565;28;46145;-75
2023/07/01 08:41:41;;;;;;;;;0.00;0.00;;;;;20.40;68.87;100275.75;5071521;27;45536;-71
2023/07/01 08:44:08;;;;;;;;;1.00;0.00;;;;;20.19;69.06;100287.00;5076416;28;45611;-71
2023/07/01 08:46:34;;;;;;;;;0.00;0.00;;;;;20.11;69.67;100276.09;5066828;28;45474;-74
2023/07/01 08:49:00;;;;;;;;;0.00;0.00;;;;;20.16;68.94;100268.63;5068449;28;45442;-71
2023/07/01 08:51:31;;;;;;;;;0.00;0.00;;;;;20.21;68.72;100278.91;5068643;28;48015;-68
2023/07/01 08:53:59;;;;;;;;;1.00;1.00;;;;;20.19;68.36;100278.19;5075196;28;45256;-71
2023/07/01 08:56:24;;;;;;;;;0.00;0.00;;;;;20.26;68.54;100280.28;5074038;28;45282;-72
2023/07/01 08:58:50;;;;;;;;;1.50;0.00;;;;;20.31;68.36;100277.28;5073812;27;45328;-72
2023/07/01 09:01:16;;;;;;;;;0.50;0.00;;;;;20.34;67.24;100273.53;5067342;28;46982;-77
2023/07/01 09:03:42;;;;;;;;;0.00;0.00;;;;;20.33;66.90;100266.50;5079278;27;45700;-72
2023/07/01 09:06:08;;;;;;;;;0.00;0.00;;;;;20.26;67.13;100266.16;5070826;28;45442;-79
2023/07/01 09:08:38;;;;;;;;;1.00;0.00;;;;;20.34;67.05;100274.38;5077239;28;45458;-73
2023/07/01 09:11:09;;;;;;;;;0.00;0.00;;;;;20.44;66.62;100261.25;5077051;28;46058;-77
2023/07/01 09:13:35;;;;;;;;;0.50;0.50;;;;;20.52;66.60;100265.97;5074526;28;45493;-77
2023/07/01 09:16:00;;;;;;;;;0.25;0.00;;;;;20.59;65.52;100264.53;5077514;28;45269;-74
2023/07/01 09:18:28;;;;;;;;;0.50;0.50;;;;;20.68;66.21;100258.53;5054150;28;66139;-74
2023/07/01 09:20:54;;;;;;;;;0.00;0.00;;;;;20.76;64.65;100261.47;5070117;28;46664;-75
2023/07/01 09:23:35;;;;;;;;;1.50;1.00;;;;;20.95;64.96;100262.69;5054916;28;46008;-75
2023/07/01 09:26:07;;;;;;;;;1.00;0.50;;;;;21.17;64.94;100264.50;5068880;28;45364;-76
2023/07/01 09:28:33;;;;;;;;;1.00;1.00;;;;;21.35;64.10;100257.69;5075072;28;45460;-79
2023/07/01 09:31:03;;;;;;;;;3.50;1.00;;;;;21.53;63.47;100251.91;5066162;28;45603;-73
2023/07/01 09:33:29;;;;;;;;;1.00;1.00;;;;;21.69;62.90;100248.84;5072470;28;45807;-75
2023/07/01 09:36:01;;;;;;;;;1.00;1.00;;;;;21.97;63.21;100258.94;5072906;27;45369;-73
2023/07/01 09:38:29;;;;;;;;;1.50;0.25;;;;;22.31;62.24;100261.50;5071936;28;45447;-72
2023/07/01 09:40:55;;;;;;;;;1.00;1.00;;;;;22.48;61.39;100253.88;5058318;28;47048;-75
2023/07/01 09:43:31;;;;;;;;;0.75;0.50;;;;;22.53;61.18;100268.50;5067122;28;45338;-72
2023/07/01 09:45:56;;;;;;;;;1.25;0.75;;;;;22.49;60.87;100266.25;5047484;28;45324;-73
2023/07/01 09:48:22;;;;;;;;;1.00;1.00;;;;;22.50;59.44;100265.25;5059685;28;45564;-73
2023/07/01 09:50:51;;;;;;;;;0.00;0.00;;;;;22.57;59.34;100269.09;5070409;27;46280;-73
2023/07/01 09:53:19;;;;;;;;;1.00;1.00;;;;;22.68;58.68;100263.72;5072882;28;45978;-76
2023/07/01 09:55:46;;;;;;;;;1.00;1.00;;;;;22.82;56.54;100272.34;5075643;28;45355;-73
2023/07/01 09:58:12;;;;;;;;;1.00;1.00;;;;;22.84;55.23;100268.59;5071510;27;45904;-72
2023/07/01 10:00:38;;;;;;;;;1.25;0.00;;;;;22.82;56.37;100265.16;5079107;27;45340;-72
2023/07/01 10:03:03;;;;;;;;;1.50;1.00;;;;;22.83;57.30;100258.88;5071908;28;47252;-74
2023/07/01 10:05:28;;;;;;;;;4.75;4.25;;;;;22.80;56.86;100264.47;5077866;28;45442;-75
2023/07/01 10:07:54;;;;;;;;;9.50;6.25;;;;;22.80;56.46;100259.13;5071349;28;68985;-74
2023/07/01 10:10:21;;;;;;;;;16.25;11.25;;;;;22.92;55.90;100251.91;5060353;28;63036;-75
2023/07/01 10:12:48;;;;;;;;;5.00;5.00;;;;;23.12;55.40;100258.19;5056466;27;45882;-74
2023/07/01 10:15:17;;;;;;;;;6.50;5.25;;;;;23.27;54.42;100248.84;5050296;28;45481;-74
2023/07/01 10:17:49;;;;;;;;;4.25;4.25;;;;;23.45;54.60;100259.72;5070186;28;45358;-74
2023/07/01 10:20:28;;;;;;;;;15.75;13.50;;;;;23.57;54.17;100257.78;5069885;27;47049;-73
2023/07/01 10:22:58;;;;;;;;;11.50;11.00;;;;;23.70;54.24;100260.19;5070354;28;45474;-74
2023/07/01 10:25:35;;;;;;;;;6.75;5.00;;;;;23.78;52.49;100254.13;5054004;28;45339;-73
2023/07/01 10:28:00;;;;;;;;;6.25;5.75;;;;;23.91;52.77;100256.59;5075055;28;45513;-73
2023/07/01 10:30:27;;;;;;;;;2.00;1.75;;;;;23.97;53.18;100254.19;5078967;27;45414;-74
2023/07/01 10:32:52;;;;;;;;;12.00;6.75;;;;;23.92;52.05;100248.44;5077436;27;45269;-78
2023/07/01 10:35:18;;;;;;;;;3.00;2.00;;;;;23.98;49.64;100252.38;5073799;27;45470;-79
2023/07/01 10:38:19;;;;;;;;;4.50;3.75;;;;;24.08;51.76;100250.53;5071105;28;45476;-78
2023/07/01 10:40:45;;;;;;;;;9.00;6.00;;;;;24.09;51.25;100241.53;5020140;28;45483;-88
2023/07/01 10:43:29;;;;;;;;;7.75;6.50;;;;;24.15;51.51;100256.16;5060643;28;45855;-82
2023/07/01 10:46:19;;;;;;;;;17.25;16.00;;;;;24.26;49.99;100248.00;5081018;27;45496;-75
2023/07/01 10:49:03;;;;;;;;;19.00;15.33;;;;;24.38;50.65;100270.09;5090073;27;45942;-82
2023/07/01 10:51:31;;;;;;;;;17.00;14.75;;;;;24.42;49.49;100248.28;5074135;28;47907;-71
2023/07/01 10:54:07;;;;;;;;;2.00;2.00;;;;;24.43;48.35;100258.00;5075731;27;46824;-73
2023/07/01 10:56:34;;;;;;;;;3.25;2.25;;;;;24.43;48.24;100257.13;5072109;27;45573;-74
2023/07/01 10:59:29;;;;;;;;;3.25;3.25;;;;;24.39;49.56;100250.38;5077697;27;45529;-75
2023/07/01 11:01:59;;;;;;;;;6.75;4.75;;;;;24.32;47.71;100252.78;5076542;28;46211;-77
2023/07/01 11:04:51;;;;;;;;;4.75;2.75;;;;;24.41;49.78;100256.44;5078718;28;45668;-71
2023/07/01 11:07:24;;;;;;;;;6.25;3.50;;;;;24.50;49.24;100250.22;5072971;28;45548;-72
2023/07/01 11:09:49;;;;;;;;;8.25;6.25;;;;;24.63;49.06;100248.13;5080744;28;45386;-72
2023/07/01 11:12:15;;;;;;;;;4.00;2.25;;;;;24.77;48.43;100249.50;5073704;28;45357;-76
2023/07/01 11:14:40;;;;;;;;;3.25;1.25;;;;;24.92;49.15;100244.50;5068622;28;45679;-74
2023/07/01 11:17:10;;;;;;;;;2.75;2.75;;;;;25.00;47.78;100241.09;5078165;28;45604;-78
2023/07/01 11:19:36;;;;;;;;;4.50;2.25;;;;;25.04;46.32;100241.63;5080090;28;45252;-74
2023/07/01 11:22:02;;;;;;;;;2.50;2.00;;;;;25.13;45.67;100238.09;5076615;28;46713;-75